Edmonton International Airport

CYEG · 艾伯塔, 加拿大

METAR的历史 CYEG · Edmonton International Airport

下面你可以看到过去几天的METARs。 选择年份以浏览从2007年开始的旧METAR。

2022年11月26日

时间 代码 天气 温度 能见度 天花板 METAR/SPECI
15:00
V
0 °C 20 mi 14.000 ft 180° 180° 7 kt METAR CYEG 262200Z 18007KT 20SM FEW100 BKN140 BKN250 00/M04 A2971 RMK AC1AC7CI1 AC TR CI TR VIRGA DIST SW SLP099
15:00
V
0 °C 20 mi 14.000 ft 180° 180° 7 kt METAR CYEG 262200Z 18007KT 20SM FEW100 BKN140 BKN250 00/M04 A2971 RMK AC1AC7CI1 AC TR CI TR VIRGA DIST SW SLP099
14:00
V
1 °C 20 mi 19.000 ft 180° 180° 7 kt METAR CYEG 262100Z 18007KT 20SM FEW100 BKN190 BKN250 01/M05 A2975 RMK AC1AC5CI1 SLP108
13:00
V
0 °C 20 mi 9.800 ft 190° 190° 7 kt METAR CYEG 262000Z 19007KT 20SM BKN098 BKN180 BKN250 00/M04 A2977 RMK AC5AC2CI1 CI TR SLP118
12:00
V
-1 °C 20 mi 25.000 ft 200° 200° 6 kt METAR CYEG 261900Z 20006KT 20SM FEW120 FEW180 BKN250 M01/M06 A2981 RMK AC1AC2CI4 AC TR SLP131
11:00
V
-1 °C 20 mi 25.000 ft 200° 200° 7 kt METAR CYEG 261800Z 20007KT 20SM FEW180 BKN250 M01/M07 A2983 RMK AC2CI4 SLP138
10:00
V
-4 °C 20 mi 23.000 ft 200° 200° 7 kt METAR CYEG 261700Z 20007KT 20SM FEW075 FEW160 BKN230 M04/M08 A2985 RMK AC1AC2CI3 AC TR SLP147
09:00
V
-3 °C 20 mi 25.000 ft 200° 200° 5 kt METAR CYEG 261600Z 20005KT 20SM FEW074 SCT180 BKN250 M03/M07 A2986 RMK AC1AC3CI3 AC TR SLP147
08:00
V
-1 °C 20 mi 7.400 ft 230° 230° 6 kt METAR CYEG 261500Z 23006KT 20SM BKN074 BKN250 M01/M06 A2987 RMK AC7CI1 CI TR SLP149
07:00
V
-1 °C 20 mi 8.200 ft 240° 240° 10 kt METAR CYEG 261400Z 24010KT 20SM BKN082 M01/M06 A2987 RMK AC7 SLP149
06:00
V
-1 °C 20 mi 8.500 ft 250° 250° 8 kt METAR CYEG 261300Z 25008KT 20SM BKN085 M01/M06 A2987 RMK AC7 SLP152
05:00
V
-2 °C 20 mi 8.100 ft 240° 240° 7 kt METAR CYEG 261200Z 24007KT 20SM BKN081 M02/M06 A2987 RMK AC7 SLP151
04:00
V
-3 °C 20 mi 7.500 ft 230° 230° 8 kt METAR CYEG 261100Z 23008KT 20SM BKN075 M03/M07 A2988 RMK AC7 SLP153
03:00
V
-4 °C 20 mi - 250° 250° 9 kt METAR CYEG 261000Z 25009KT 20SM FEW078 M04/M09 A2988 RMK AC2 SLP153
02:00
V
-3 °C 20 mi - 260° 260° 10 kt METAR CYEG 260900Z 26010KT 20SM FEW073 M03/M08 A2986 RMK AC1 SLP146
01:00
V
-2 °C 20 mi 7.300 ft 260° 260° 7 kt METAR CYEG 260800Z 26007KT 20SM BKN073 M02/M07 A2985 RMK AC7 SLP144
00:00
V
-3 °C 20 mi 7.400 ft 240° 240° 7 kt METAR CYEG 260700Z 24007KT 20SM BKN074 M03/M08 A2984 RMK AC7 SLP142

2022年11月25日

时间 代码 天气 温度 能见度 天花板 METAR/SPECI
23:00
V
0 °C 20 mi 11.000 ft 280° 280° 8 kt METAR CYEG 260600Z 28008KT 20SM FEW075 BKN110 M00/M08 A2983 RMK AC2AC3 SLP135
22:00
V
-3 °C 20 mi - 260° 260° 10 kt METAR CYEG 260500Z 26010KT 20SM FEW100 FEW250 M03/M08 A2981 RMK AC1CI1 CI TR SLP135
21:00
V
1 °C 20 mi - 280° 280° 8 kt METAR CYEG 260400Z 28008KT 20SM SCT100 SCT250 01/M07 A2978 RMK AC3CI1 CI TR SLP125
20:00
V
1 °C 20 mi - 300° 300° 9 kt METAR CYEG 260300Z 30009KT 20SM FEW160 FEW250 01/M06 A2977 RMK AC1CI1 AC TR CI TR SLP124
19:00
V
1 °C 20 mi - 290° 290° 7 kt METAR CYEG 260200Z 29007KT 20SM FEW160 FEW250 01/M04 A2975 RMK AC1CI1 SLP115
18:00
V
0 °C 20 mi - 230° 230° 6 kt METAR CYEG 260100Z 23006KT 20SM FEW150 SCT250 M00/M02 A2974 RMK AC2CI2 SLP113
17:00
V
1 °C 20 mi 15.000 ft 250° 250° 6 kt METAR CYEG 260000Z 25006KT 20SM BKN150 01/M02 A2974 RMK AC7 SLP110
16:00
V
3 °C 20 mi 9.500 ft 310° 310° 12 kt METAR CYEG 252300Z 31012KT 20SM FEW034 BKN095 03/M03 A2972 RMK SC1AC7 SC TR SLP101
15:00
V
3 °C 20 mi 3.400 ft 280° 280° 7 kt METAR CYEG 252200Z 28007KT 20SM BKN034 OVC080 03/M00 A2971 RMK SC5AC3 SLP099
14:00
V
2 °C 20 mi 7.500 ft 250° 250° 8 kt METAR CYEG 252100Z 25008KT 20SM FEW050 OVC075 02/01 A2970 RMK SC2AC6 SLP096
13:00
V
2 °C 20 mi 7.300 ft 230° 230° 6 kt METAR CYEG 252000Z 23006KT 20SM OVC073 02/01 A2969 RMK AC8 SLP092
12:21
V
1 °C 20 mi 8.800 ft 170° 170° 6 kt METAR CYEG 251921Z 17006KT 20SM SCT020 OVC088 01/M00 A2970 RMK SC3AC5 PRESFR SLP095
12:00
M
1 °C 20 mi 1.600 ft 330° 330° 6 kt METAR CYEG 251900Z 33006KT 310V010 20SM -RA OVC016 01/M00 A2973 RMK SC8 SLP104
11:33
M
0 °C 20 mi 2.500 ft 340° 340° 11 kt METAR CYEG 251833Z 34011KT 20SM -RA BKN025 OVC062 00/M01 A2972 RMK SC6SC2 SLP098
11:25
M
0 °C 20 mi 2.800 ft 330° 330° 7 kt METAR CYEG 251825Z CCB 33007KT 20SM -SHSN BKN028 OVC062 M00/M02 A2971 RMK SC5SC3 CVCTV CLD EMBD SLP095
11:00
V
-1 °C 20 mi 6.200 ft 270° 270° 3 kt METAR CYEG 251800Z 27003KT 260V320 20SM BKN062 OVC120 M01/M03 A2970 RMK SC7AC1 VIRGA PTCHS SLP095
10:00
V
-4 °C 20 mi 7.000 ft 290° 290° 5 kt METAR CYEG 251700Z 29005KT 270V330 20SM BKN070 BKN180 OVC250 M04/M05 A2969 RMK AC7AC1CI1 AC TR VIRGA OHD SLP093
09:00
V
-8 °C 20 mi 18.000 ft Var 000° 0 kt METAR CYEG 251600Z 00000KT 20SM FEW060 SCT080 BKN180 BKN250 M08/M09 A2964 RMK SC1AC4AC1CI2 SC TR FROIN SLP078
08:00
V
-11 °C 20 mi 8.000 ft 190° 190° 4 kt METAR CYEG 251500Z 19004KT 20SM BKN080 BKN180 BKN250 M11/M11 A2967 RMK AC5AC1CI1 CI TR FROIN SLP087
07:00
V
-9 °C 20 mi - 180° 180° 3 kt METAR CYEG 251400Z 18003KT 20SM SCT210 M09/M10 A2966 RMK CI3 SLP084
06:00
V
-9 °C 20 mi - Var 000° 0 kt METAR CYEG 251300Z 00000KT 20SM FEW220 M09/M10 A2967 RMK CI1 CI TR SLP084
05:00
V
-9 °C 20 mi - Var 000° 0 kt METAR CYEG 251200Z 00000KT 20SM FEW220 M09/M10 A2969 RMK CI1 CI TR SLP090
04:00
V
-8 °C 20 mi - Var 000° 0 kt METAR CYEG 251100Z 00000KT 20SM SKC M08/M09 A2971 RMK SLP096
03:00
V
-7 °C 20 mi - 200° 200° 2 kt METAR CYEG 251000Z 20002KT 20SM FEW230 M07/M08 A2974 RMK CI1 CI TR SLP105
02:00
V
-7 °C 20 mi - 210° 210° 4 kt METAR CYEG 250900Z 21004KT 20SM FEW230 M07/M08 A2975 RMK CI1 CI TR SLP110
01:00
V
-5 °C 20 mi - 190° 190° 7 kt METAR CYEG 250800Z 19007KT 20SM FEW230 M05/M07 A2976 RMK CI1 CI TR SLP110
00:00
V
-4 °C 20 mi - Var 000° 0 kt METAR CYEG 250700Z 00000KT 20SM SKC M04/M06 A2976 RMK SLP113

2022年11月24日

时间 代码 天气 温度 能见度 天花板 METAR/SPECI
23:00
V
-3 °C 20 mi - 330° 330° 2 kt METAR CYEG 250600Z 33002KT 20SM FEW240 M03/M05 A2978 RMK CI1 CI TR SLP119
22:00
V
-3 °C 20 mi - Var Var 7 kt METAR CYEG 250500Z VRB07KT 20SM FEW240 M03/M06 A2977 RMK CI2 SLP114
21:00
V
0 °C 20 mi - Var 000° 0 kt METAR CYEG 250400Z 00000KT 20SM FEW250 M00/M03 A2974 RMK CI1 CI TR SLP103
20:02
V
2 °C 20 mi - 190° 190° 5 kt METAR CYEG 250302Z 19005KT 20SM FEW250 02/M03 A2975 RMK CI1 CI TR SLP102
20:00
V
3 °C 20 mi - 190° 190° 6 kt METAR CYEG 250300Z 19006KT 20SM FEW250 03/M03 A2975 RMK CI1 CI TR SLP103
19:00
V
0 °C 20 mi - 180° 180° 3 kt METAR CYEG 250200Z 18003KT 160V250 20SM FEW250 00/M03 A2975 RMK CI1 CI TR SLP104
18:52
V
2 °C 20 mi - 220° 220° 3 kt METAR CYEG 250152Z 22003KT 190V250 20SM FEW250 02/M03 A2976 RMK CI1 CI TR SLP106
18:00
V
4 °C 20 mi - 160° 160° 5 kt METAR CYEG 250100Z 16005KT 20SM SCT250 04/M02 A2976 RMK CI4 CONTRAILS SLP108
17:00
V
4 °C 20 mi 25.000 ft 180° 180° 9 kt METAR CYEG 250000Z 18009KT 20SM BKN250 04/M02 A2978 RMK CI7 SLP112
16:00
V
6 °C 20 mi 25.000 ft 170° 170° 9 kt METAR CYEG 242300Z 17009KT 20SM BKN250 06/M02 A2979 RMK CI7 SLP117
15:00
V
6 °C 20 mi 25.000 ft 180° 180° 11 kt METAR CYEG 242200Z 18011KT 20SM BKN250 06/M02 A2981 RMK CI7 SLP123
14:00
V
6 °C 20 mi 25.000 ft 200° 200° 7 kt METAR CYEG 242100Z 20007KT 20SM FEW150 BKN250 06/M02 A2983 RMK AC1CI6 SLP129
13:00
V
6 °C 20 mi 25.000 ft 170° 170° 5 kt METAR CYEG 242000Z 17005KT 20SM BKN250 06/M02 A2986 RMK CI7 SLP140
12:00
V
3 °C 20 mi 25.000 ft 170° 170° 3 kt METAR CYEG 241900Z 17003KT 20SM FEW110 BKN250 03/M01 A2987 RMK AC1CI7 AC TR SLP147
11:00
V
2 °C 20 mi 25.000 ft 160° 160° 6 kt METAR CYEG 241800Z 16006KT 20SM FEW110 OVC250 02/M02 A2988 RMK AC1CI8 AC TR SLP154
10:00
V
2 °C 20 mi 25.000 ft 170° 170° 7 kt METAR CYEG 241700Z 17007KT 20SM FEW110 OVC250 02/M03 A2990 RMK AC1CI7 SLP160
09:00
V
2 °C 20 mi 11.000 ft 170° 170° 8 kt METAR CYEG 241600Z 17008KT 20SM BKN110 BKN160 OVC250 02/M03 A2990 RMK AC6AC1CI2 AC TR SLP162
08:00
V
2 °C 20 mi 22.000 ft 160° 160° 5 kt METAR CYEG 241500Z 16005KT 20SM FEW090 FEW160 OVC220 02/M02 A2990 RMK AC1AC1CI7 AC TR SLP161
07:00
V
2 °C 20 mi 10.000 ft 190° 190° 4 kt METAR CYEG 241400Z 19004KT 20SM SCT088 BKN100 OVC200 02/M02 A2990 RMK AC3AC4CI1 SLP161
06:00
V
1 °C 20 mi 11.000 ft 190° 190° 8 kt METAR CYEG 241300Z 19008KT 20SM BKN110 OVC140 01/M03 A2989 RMK AC5AC3 SLP158
05:00
V
1 °C 20 mi 10.000 ft 180° 180° 5 kt METAR CYEG 241200Z 18005KT 20SM SCT090 OVC100 01/M04 A2990 RMK AC4AC4 SLP159
04:13
V
0 °C 20 mi 8.000 ft 180° 180° 6 kt METAR CYEG 241113Z 18006KT 20SM OVC080 00/M04 A2993 RMK AC8 SLP168
04:00
V
0 °C 20 mi 8.000 ft 190° 190° 13 kt METAR CYEG 241100Z 19013KT 20SM -FZRA OVC080 00/M04 A2993 RMK AC8 ICE ON INDICATOR SLP169
03:49
V
0 °C 20 mi 8.000 ft 210° 210° 10 kt METAR CYEG 241049Z CCA 21010KT 20SM -FZRA OVC080 00/M05 A2994 RMK AC8 ICE ON INDICATOR PRESRR SLP174
03:00
V
0 °C 20 mi 11.000 ft 170° 170° 8 kt METAR CYEG 241000Z 17008KT 20SM BKN110 OVC120 00/M06 A2992 RMK AC5AC3 SLP166

我们和第三方通过cookies跟踪您在我们网站上的互联网行为。如果你继续,我们认为你同意我们的饼干政策